Time;durP1;ratioP1;P1;durP2;ratioP2;P2;SDS_P1;SDS_P2;PMS_P1;PMS_P2;Temp;Humidity;BMP_temperature;BMP_pressure;BME280_temperature;BME280_humidity;BME280_pressure;Samples;Min_cycle;Max_cycle;Signal;HPM_P1;HPM_P2
2022/09/17 00:00:57;;;;;;;12.85;7.03;;;11.10;99.90;;;;;;5094906;28;20024;-52
2022/09/17 00:03:23;;;;;;;10.00;6.85;;;11.00;99.90;;;;;;5094222;28;20104;-54
2022/09/17 00:05:49;;;;;;;13.15;7.68;;;11.00;99.90;;;;;;5074373;28;20038;-51
2022/09/17 00:08:15;;;;;;;9.18;5.53;;;11.00;99.90;;;;;;5074214;28;20157;-54
2022/09/17 00:10:42;;;;;;;7.07;5.57;;;10.90;99.90;;;;;;5074241;28;20145;-54
2022/09/17 00:13:09;;;;;;;6.40;5.45;;;10.90;99.90;;;;;;5074242;28;20021;-54
2022/09/17 00:15:45;;;;;;;5.82;5.22;;;10.90;99.90;;;;;;5092300;28;20024;-51
2022/09/17 00:18:12;;;;;;;5.43;4.93;;;11.00;99.90;;;;;;5094497;28;20032;-52
2022/09/17 00:20:39;;;;;;;5.47;4.35;;;10.80;99.90;;;;;;5094436;28;20018;-51
2022/09/17 00:23:06;;;;;;;5.93;4.53;;;10.80;99.90;;;;;;5094453;28;20051;-51
2022/09/17 00:25:31;;;;;;;5.40;4.32;;;10.80;99.90;;;;;;5076183;28;20103;-52
2022/09/17 00:27:57;;;;;;;7.10;4.15;;;10.70;99.90;;;;;;5074138;28;20108;-55
2022/09/17 00:30:23;;;;;;;3.80;3.50;;;10.70;99.90;;;;;;5074203;28;20078;-53
2022/09/17 00:32:48;;;;;;;9.38;3.22;;;10.70;99.90;;;;;;5072501;28;20501;-52
2022/09/17 00:35:14;;;;;;;4.82;3.75;;;10.60;99.90;;;;;;5088905;28;20471;-53
2022/09/17 00:37:40;;;;;;;3.53;3.15;;;10.50;99.90;;;;;;5094024;28;20454;-51
2022/09/17 00:40:06;;;;;;;4.95;2.92;;;10.60;99.90;;;;;;5093604;28;20020;-53
2022/09/17 00:42:32;;;;;;;2.72;2.53;;;10.60;99.90;;;;;;5093960;28;20093;-52
2022/09/17 00:44:57;;;;;;;5.95;2.15;;;10.60;99.90;;;;;;5081376;28;20054;-52
2022/09/17 00:47:34;;;;;;;5.93;2.75;;;10.50;99.90;;;;;;5082049;28;20035;-52
2022/09/17 00:50:14;;;;;;;2.28;2.08;;;10.60;99.90;;;;;;5093977;28;20375;-52
2022/09/17 00:52:45;;;;;;;2.65;2.45;;;10.50;99.90;;;;;;5093889;28;20039;-51
2022/09/17 00:55:24;;;;;;;3.00;2.67;;;10.40;99.90;;;;;;5094015;28;20097;-51
2022/09/17 00:57:53;;;;;;;3.20;2.78;;;10.40;99.90;;;;;;5082062;28;20025;-53
2022/09/17 01:00:20;;;;;;;5.07;2.85;;;10.40;99.90;;;;;;5072175;28;20663;-52
2022/09/17 01:02:46;;;;;;;4.45;2.88;;;10.30;99.90;;;;;;5073346;28;20058;-51
2022/09/17 01:05:12;;;;;;;3.85;3.15;;;10.30;99.90;;;;;;5073344;28;20029;-51
2022/09/17 01:07:46;;;;;;;2.95;2.75;;;10.20;99.90;;;;;;5082212;28;20074;-55
2022/09/17 01:10:47;;;;;;;3.25;2.95;;;10.20;99.90;;;;;;5093485;28;20044;-54
2022/09/17 01:13:16;;;;;;;3.33;2.60;;;10.10;99.90;;;;;;5093304;28;20028;-52
2022/09/17 01:15:56;;;;;;;4.95;2.67;;;10.20;99.90;;;;;;5093414;28;20036;-53
2022/09/17 01:18:36;;;;;;;2.45;2.25;;;10.10;99.90;;;;;;5077839;28;20027;-53
2022/09/17 01:21:16;;;;;;;2.90;2.65;;;10.10;99.90;;;;;;5073183;28;20124;-54
2022/09/17 01:24:14;;;;;;;3.17;2.60;;;10.10;99.90;;;;;;5072779;28;20120;-51
2022/09/17 01:26:57;;;;;;;3.45;3.15;;;10.10;99.90;;;;;;5052697;28;20117;-52
2022/09/17 01:29:41;;;;;;;7.40;3.10;;;9.90;99.90;;;;;;5052951;28;20032;-54
2022/09/17 01:32:36;;;;;;;3.70;3.40;;;9.90;99.90;;;;;;5052781;28;20025;-51
2022/09/17 01:35:28;;;;;;;4.70;3.80;;;9.90;99.90;;;;;;5063144;28;20077;-56
2022/09/17 01:37:59;;;;;;;4.70;3.45;;;9.80;99.90;;;;;;5090663;28;20403;-53
2022/09/17 01:40:40;;;;;;;4.00;3.63;;;9.70;99.90;;;;;;5091104;28;20081;-55
2022/09/17 01:43:09;;;;;;;4.20;3.90;;;9.70;99.90;;;;;;5092941;28;20044;-52
2022/09/17 01:45:50;;;;;;;4.97;4.20;;;9.70;99.90;;;;;;5080892;28;20448;-53
2022/09/17 01:48:19;;;;;;;7.13;4.60;;;9.70;99.90;;;;;;5072415;28;20021;-52
2022/09/17 01:51:11;;;;;;;4.95;4.20;;;9.70;99.90;;;;;;5072966;28;20111;-53
2022/09/17 01:53:46;;;;;;;5.00;4.60;;;9.60;99.90;;;;;;5076992;28;20048;-52
2022/09/17 01:56:15;;;;;;;6.97;4.75;;;9.60;99.90;;;;;;5092693;28;20069;-52
2022/09/17 01:58:50;;;;;;;4.82;4.30;;;9.50;99.90;;;;;;5092180;28;20020;-52
2022/09/17 02:01:21;;;;;;;7.03;4.72;;;9.50;99.90;;;;;;5092643;28;20476;-51
2022/09/17 02:04:01;;;;;;;10.35;4.75;;;9.50;99.90;;;;;;5077113;28;20028;-54
2022/09/17 02:06:33;;;;;;;5.93;4.85;;;9.50;99.90;;;;;;5072213;28;20032;-53
2022/09/17 02:09:05;;;;;;;5.80;5.25;;;9.50;99.90;;;;;;5071978;28;20716;-51
2022/09/17 02:11:35;;;;;;;5.95;5.40;;;9.40;99.90;;;;;;5071788;28;20032;-53
2022/09/17 02:14:36;;;;;;;6.82;5.45;;;9.40;99.90;;;;;;5087351;28;20028;-52
2022/09/17 02:17:11;;;;;;;7.38;5.20;;;9.50;99.90;;;;;;5089010;28;20036;-51
2022/09/17 02:19:39;;;;;;;8.65;6.05;;;9.50;99.90;;;;;;5091812;28;20020;-52
2022/09/17 02:22:04;;;;;;;5.97;5.38;;;9.50;99.90;;;;;;5091917;28;20020;-51
2022/09/17 02:24:58;;;;;;;6.68;4.90;;;9.60;99.90;;;;;;5072277;28;20029;-51
2022/09/17 02:27:34;;;;;;;10.93;5.43;;;9.70;99.90;;;;;;5072026;28;20457;-52
2022/09/17 02:30:00;;;;;;;8.63;5.40;;;9.70;99.90;;;;;;5071916;28;20029;-50
2022/09/17 02:32:26;;;;;;;6.60;5.78;;;9.70;99.90;;;;;;5073261;28;20743;-51
2022/09/17 02:34:52;;;;;;;6.28;5.47;;;9.80;99.90;;;;;;5091866;28;20060;-52
2022/09/17 02:37:18;;;;;;;9.80;6.63;;;9.90;99.90;;;;;;5090709;28;20024;-53
2022/09/17 02:39:43;;;;;;;11.32;5.93;;;9.80;99.90;;;;;;5091840;28;20024;-51
2022/09/17 02:42:22;;;;;;;9.27;5.65;;;9.90;99.90;;;;;;5091895;28;20536;-51
2022/09/17 02:45:05;;;;;;;8.35;5.70;;;10.00;99.90;;;;;;5051488;28;20032;-53
2022/09/17 02:47:46;;;;;;;7.30;5.80;;;10.00;99.90;;;;;;5051601;28;20376;-51
2022/09/17 02:50:22;;;;;;;7.47;6.32;;;10.10;99.90;;;;;;5051660;28;20071;-51
2022/09/17 02:53:27;;;;;;;7.05;6.15;;;10.00;99.90;;;;;;5060524;28;20028;-55
2022/09/17 02:56:13;;;;;;;9.32;6.45;;;10.00;99.90;;;;;;5091429;28;20107;-51
2022/09/17 02:59:09;;;;;;;7.03;6.22;;;10.10;99.90;;;;;;5091274;28;20123;-52
2022/09/17 03:01:43;;;;;;;10.15;6.38;;;10.20;99.90;;;;;;5091544;28;20059;-51
2022/09/17 03:04:14;;;;;;;8.23;6.45;;;10.20;99.90;;;;;;5075706;28;20532;-55
2022/09/17 03:06:41;;;;;;;9.63;5.63;;;10.20;99.90;;;;;;5071169;28;20455;-51
2022/09/17 03:09:07;;;;;;;9.15;6.28;;;10.20;99.90;;;;;;5071211;28;20055;-51
2022/09/17 03:11:33;;;;;;;8.00;6.47;;;10.20;99.90;;;;;;5071270;28;20013;-51
2022/09/17 03:13:59;;;;;;;8.82;6.65;;;10.10;99.90;;;;;;5084906;28;20028;-53
2022/09/17 03:16:24;;;;;;;7.43;5.85;;;10.20;99.90;;;;;;5091626;28;20020;-51
2022/09/17 03:18:50;;;;;;;7.13;6.40;;;10.20;99.90;;;;;;5091398;28;20024;-52
2022/09/17 03:21:15;;;;;;;8.27;6.68;;;10.20;99.90;;;;;;5091415;28;20363;-51
2022/09/17 03:23:41;;;;;;;7.40;6.43;;;10.20;99.90;;;;;;5079912;28;20047;-52
2022/09/17 03:26:07;;;;;;;9.75;6.97;;;10.20;99.90;;;;;;5071345;28;20039;-50
2022/09/17 03:28:33;;;;;;;11.20;6.13;;;10.10;99.90;;;;;;5070963;28;20044;-53
2022/09/17 03:30:58;;;;;;;6.35;5.75;;;10.10;99.90;;;;;;5071172;28;20021;-54
2022/09/17 03:33:24;;;;;;;9.57;6.38;;;10.10;99.90;;;;;;5079533;28;20497;-53
2022/09/17 03:35:49;;;;;;;15.38;8.43;;;10.10;99.90;;;;;;5081742;28;20119;-51
2022/09/17 03:38:16;;;;;;;8.07;5.60;;;10.10;99.90;;;;;;5071121;28;20055;-52
2022/09/17 03:40:42;;;;;;;7.82;7.03;;;10.20;99.90;;;;;;5070967;28;20036;-51
2022/09/17 03:43:08;;;;;;;7.00;6.13;;;10.20;99.90;;;;;;5070976;28;20372;-51
2022/09/17 03:45:33;;;;;;;7.18;6.38;;;10.20;99.90;;;;;;5076569;28;20028;-53
2022/09/17 03:47:59;;;;;;;7.32;6.63;;;10.20;99.90;;;;;;5091232;28;20399;-51
2022/09/17 03:50:25;;;;;;;8.27;6.55;;;10.00;99.90;;;;;;5091173;28;20532;-53
2022/09/17 03:52:51;;;;;;;9.07;5.63;;;10.00;99.90;;;;;;5089729;28;20028;-52
2022/09/17 03:55:16;;;;;;;8.95;5.90;;;9.90;99.90;;;;;;5087677;28;20024;-51
2022/09/17 03:57:42;;;;;;;10.40;6.68;;;9.90;99.90;;;;;;5070798;28;20070;-53
2022/09/17 04:00:09;;;;;;;6.40;5.38;;;9.90;99.90;;;;;;5070927;28;20378;-51
2022/09/17 04:02:34;;;;;;;7.60;5.50;;;9.90;99.90;;;;;;5070669;28;20021;-52
2022/09/17 04:05:00;;;;;;;12.40;6.05;;;9.90;99.90;;;;;;5070567;28;20535;-51
2022/09/17 04:07:26;;;;;;;7.72;5.72;;;9.90;99.90;;;;;;5089741;28;20028;-50
2022/09/17 04:09:51;;;;;;;9.20;6.25;;;9.90;99.90;;;;;;5090748;28;20048;-51
2022/09/17 04:12:17;;;;;;;6.97;5.97;;;9.90;99.90;;;;;;5091000;28;20032;-51
2022/09/17 04:14:43;;;;;;;11.55;5.25;;;9.90;99.90;;;;;;5091619;28;20035;-51
2022/09/17 04:17:08;;;;;;;6.97;5.35;;;9.90;99.90;;;;;;5075783;28;20016;-51
2022/09/17 04:19:34;;;;;;;6.55;5.93;;;9.90;99.90;;;;;;5074119;28;20036;-52
2022/09/17 04:21:59;;;;;;;8.70;5.65;;;9.90;99.90;;;;;;5074205;28;20024;-51
2022/09/17 04:24:25;;;;;;;7.50;6.00;;;9.90;99.90;;;;;;5074148;28;20528;-52
2022/09/17 04:26:51;;;;;;;5.80;5.22;;;9.90;99.90;;;;;;5089639;28;20028;-51
2022/09/17 04:29:17;;;;;;;7.50;4.70;;;9.80;99.90;;;;;;5094378;28;20467;-51
2022/09/17 04:31:42;;;;;;;6.05;5.55;;;9.90;99.90;;;;;;5094096;28;20490;-52
2022/09/17 04:34:08;;;;;;;6.25;5.18;;;9.80;99.90;;;;;;5094230;28;20039;-52
2022/09/17 04:36:33;;;;;;;6.25;5.65;;;9.80;99.90;;;;;;5080626;28;20031;-51
2022/09/17 04:38:59;;;;;;;6.07;5.57;;;9.80;99.90;;;;;;5073899;28;20021;-51
2022/09/17 04:41:25;;;;;;;6.90;6.20;;;9.70;99.90;;;;;;5073925;28;20027;-53
2022/09/17 04:43:50;;;;;;;7.53;6.75;;;9.70;99.90;;;;;;5077737;28;20036;-51
2022/09/17 04:46:16;;;;;;;10.73;5.80;;;9.80;99.90;;;;;;5094053;28;20032;-53
2022/09/17 04:48:42;;;;;;;8.25;5.72;;;9.80;99.90;;;;;;5093790;28;20024;-52
2022/09/17 04:51:08;;;;;;;10.00;5.93;;;9.80;99.90;;;;;;5093913;28;20384;-51
2022/09/17 04:53:33;;;;;;;7.30;6.07;;;9.80;99.90;;;;;;5091744;28;20036;-54
2022/09/17 04:55:59;;;;;;;7.10;6.43;;;9.80;99.90;;;;;;5073680;28;20028;-51
2022/09/17 04:58:25;;;;;;;9.65;6.28;;;9.80;99.90;;;;;;5073448;28;20032;-52
2022/09/17 05:00:51;;;;;;;5.93;5.40;;;9.70;99.90;;;;;;5073478;28;20379;-54
2022/09/17 05:03:16;;;;;;;12.02;6.50;;;9.70;99.90;;;;;;5073480;28;20103;-54
2022/09/17 05:05:42;;;;;;;6.63;5.97;;;9.70;99.90;;;;;;5090952;28;20024;-52
2022/09/17 05:08:07;;;;;;;6.20;5.70;;;9.60;99.90;;;;;;5093521;28;20043;-51
2022/09/17 05:10:33;;;;;;;7.43;5.70;;;9.60;99.90;;;;;;5093296;28;20026;-51
2022/09/17 05:12:59;;;;;;;8.82;5.90;;;9.70;99.90;;;;;;5093366;28;20042;-51
2022/09/17 05:15:26;;;;;;;8.85;6.35;;;9.70;99.90;;;;;;5076651;28;20031;-52
2022/09/17 05:17:52;;;;;;;8.25;6.28;;;9.70;99.90;;;;;;5073022;28;20023;-51
2022/09/17 05:20:18;;;;;;;7.68;5.57;;;9.70;99.90;;;;;;5073173;28;20024;-53
2022/09/17 05:22:46;;;;;;;6.85;5.93;;;9.60;99.90;;;;;;5071776;28;20047;-52
2022/09/17 05:25:13;;;;;;;8.95;5.90;;;9.60;99.90;;;;;;5087145;28;20077;-55
2022/09/17 05:27:39;;;;;;;10.27;5.75;;;9.60;99.90;;;;;;5091913;28;20030;-52
2022/09/17 05:30:07;;;;;;;7.32;5.78;;;9.70;99.90;;;;;;5093406;28;20526;-52
2022/09/17 05:32:32;;;;;;;8.07;5.45;;;9.70;99.90;;;;;;5092759;28;20477;-52
2022/09/17 05:34:58;;;;;;;7.65;6.05;;;9.60;99.90;;;;;;5080328;28;20029;-53
2022/09/17 05:37:24;;;;;;;7.80;5.40;;;9.60;99.90;;;;;;5072821;28;20021;-53
2022/09/17 05:39:50;;;;;;;8.55;6.13;;;9.60;99.90;;;;;;5072626;28;20077;-54
2022/09/17 05:42:16;;;;;;;11.77;5.82;;;9.60;99.90;;;;;;5072668;28;20031;-52
2022/09/17 05:44:41;;;;;;;6.03;5.30;;;9.70;99.90;;;;;;5082201;28;20028;-52
2022/09/17 05:47:07;;;;;;;6.82;5.38;;;9.70;99.90;;;;;;5092814;28;20016;-52
2022/09/17 05:49:33;;;;;;;9.48;5.95;;;9.70;99.90;;;;;;5092759;28;20108;-52
2022/09/17 05:51:58;;;;;;;6.70;4.82;;;9.60;99.90;;;;;;5092778;28;20730;-52
2022/09/17 05:54:24;;;;;;;7.28;5.25;;;9.60;99.90;;;;;;5083769;28;20107;-53
2022/09/17 05:56:53;;;;;;;6.55;5.43;;;9.60;99.90;;;;;;5072140;28;20117;-52
2022/09/17 05:59:19;;;;;;;9.15;4.95;;;9.50;99.90;;;;;;5072457;28;20103;-53
2022/09/17 06:01:44;;;;;;;9.75;4.97;;;9.50;99.90;;;;;;5072218;28;20115;-53
2022/09/17 06:04:10;;;;;;;6.18;4.57;;;9.60;99.90;;;;;;5077225;28;20573;-54
2022/09/17 06:06:37;;;;;;;6.07;4.22;;;9.60;99.90;;;;;;5092489;28;20462;-52
2022/09/17 06:09:04;;;;;;;6.50;4.13;;;9.70;99.90;;;;;;5090939;28;20513;-53
2022/09/17 06:11:30;;;;;;;5.45;4.22;;;9.80;99.90;;;;;;5092215;28;20328;-51
2022/09/17 06:13:56;;;;;;;11.93;5.30;;;9.80;99.90;;;;;;5086297;28;20062;-53
2022/09/17 06:16:22;;;;;;;6.25;3.67;;;9.70;99.90;;;;;;5073482;28;20021;-51
2022/09/17 06:18:51;;;;;;;11.05;3.80;;;9.80;99.90;;;;;;5071827;28;20486;-52
2022/09/17 06:21:18;;;;;;;11.57;4.43;;;9.70;99.90;;;;;;5071861;28;20020;-53
2022/09/17 06:23:44;;;;;;;8.27;3.60;;;9.80;99.90;;;;;;5071839;28;20403;-51
2022/09/17 06:26:11;;;;;;;7.70;3.95;;;9.70;99.90;;;;;;5071900;28;20090;-53
2022/09/17 06:28:37;;;;;;;8.80;3.47;;;9.80;99.90;;;;;;5071701;28;20020;-53
2022/09/17 06:31:04;;;;;;;5.18;3.05;;;9.80;99.90;;;;;;5071705;28;20023;-52
2022/09/17 06:33:31;;;;;;;5.40;3.65;;;9.70;99.90;;;;;;5071547;28;20093;-52
2022/09/17 06:35:59;;;;;;;4.85;3.08;;;9.70;99.90;;;;;;5070274;28;20033;-54
2022/09/17 06:38:29;;;;;;;14.65;4.00;;;9.70;99.90;;;;;;5071663;28;20029;-51
2022/09/17 06:40:55;;;;;;;10.05;3.40;;;9.60;99.90;;;;;;5071653;28;20688;-56
2022/09/17 06:43:21;;;;;;;7.13;4.40;;;9.60;99.90;;;;;;5071526;28;20112;-54
2022/09/17 06:45:58;;;;;;;9.48;3.60;;;9.50;99.90;;;;;;5071221;28;20091;-52
2022/09/17 06:48:26;;;;;;;7.85;4.82;;;9.60;99.90;;;;;;5071340;28;20073;-51
2022/09/17 06:50:53;;;;;;;10.00;4.10;;;9.60;99.90;;;;;;5069480;28;20032;-53
2022/09/17 06:53:22;;;;;;;10.40;4.18;;;9.70;99.90;;;;;;5071349;28;20024;-55
2022/09/17 06:55:49;;;;;;;5.85;3.60;;;9.80;99.90;;;;;;5070167;28;20031;-52
2022/09/17 06:58:15;;;;;;;8.30;4.82;;;9.90;99.90;;;;;;5071525;28;20024;-51
2022/09/17 07:00:40;;;;;;;7.43;3.85;;;10.00;99.90;;;;;;5071381;28;20033;-52
2022/09/17 07:03:07;;;;;;;8.25;4.40;;;10.00;99.90;;;;;;5071223;28;20138;-50
2022/09/17 07:05:33;;;;;;;8.93;4.20;;;10.10;99.90;;;;;;5069866;28;20035;-51
2022/09/17 07:08:03;;;;;;;8.98;4.75;;;10.20;99.90;;;;;;5069589;28;20036;-50
2022/09/17 07:10:30;;;;;;;4.53;3.92;;;10.10;99.90;;;;;;5070949;28;20036;-53
2022/09/17 07:12:57;;;;;;;5.40;3.47;;;10.00;99.90;;;;;;5070129;28;20020;-52
2022/09/17 07:15:22;;;;;;;8.55;3.67;;;9.90;99.90;;;;;;5070986;28;20029;-51
2022/09/17 07:17:48;;;;;;;13.93;3.88;;;10.10;99.90;;;;;;5071233;28;20035;-52
2022/09/17 07:20:14;;;;;;;5.95;3.60;;;10.00;99.90;;;;;;5071178;28;20024;-51
2022/09/17 07:22:40;;;;;;;5.45;3.53;;;10.20;99.90;;;;;;5071067;28;20355;-53
2022/09/17 07:25:06;;;;;;;5.03;3.35;;;10.40;99.90;;;;;;5071279;28;20032;-52
2022/09/17 07:27:32;;;;;;;13.20;3.22;;;10.30;99.90;;;;;;5071088;28;20067;-51
2022/09/17 07:29:58;;;;;;;7.25;3.40;;;10.10;99.90;;;;;;5071250;28;20036;-51
2022/09/17 07:32:24;;;;;;;12.70;3.63;;;9.90;99.90;;;;;;5070873;28;20643;-51
2022/09/17 07:34:50;;;;;;;8.48;3.20;;;10.10;99.90;;;;;;5070451;28;20036;-51
2022/09/17 07:37:16;;;;;;;7.68;2.97;;;10.20;99.90;;;;;;5070953;28;20029;-52
2022/09/17 07:39:42;;;;;;;6.28;3.22;;;10.20;99.90;;;;;;5070856;28;20483;-51
2022/09/17 07:42:09;;;;;;;11.70;3.35;;;10.20;99.90;;;;;;5070995;28;20088;-55
2022/09/17 07:44:35;;;;;;;5.53;3.58;;;10.20;99.90;;;;;;5070884;28;20020;-51
2022/09/17 07:47:01;;;;;;;11.73;4.43;;;10.10;99.90;;;;;;5071011;28;20032;-53
2022/09/17 07:49:27;;;;;;;7.18;4.07;;;10.00;99.90;;;;;;5071447;28;20112;-52
2022/09/17 07:51:53;;;;;;;9.50;3.10;;;10.10;99.90;;;;;;5074706;28;20023;-53
2022/09/17 07:54:19;;;;;;;6.68;4.57;;;10.20;99.90;;;;;;5074599;28;20078;-51
2022/09/17 07:56:45;;;;;;;6.72;3.25;;;10.10;99.90;;;;;;5074543;28;20032;-51
2022/09/17 07:59:11;;;;;;;8.85;3.40;;;10.00;99.90;;;;;;5074699;28;20025;-52
2022/09/17 08:01:37;;;;;;;10.77;3.63;;;10.20;99.90;;;;;;5074537;28;20659;-52
2022/09/17 08:04:03;;;;;;;12.10;3.72;;;10.20;99.90;;;;;;5074598;28;20483;-52
2022/09/17 08:06:29;;;;;;;7.38;2.75;;;10.20;99.90;;;;;;5074503;28;20032;-51
2022/09/17 08:08:56;;;;;;;6.20;3.47;;;10.20;99.90;;;;;;5074143;28;20044;-51
2022/09/17 08:11:24;;;;;;;7.63;2.80;;;10.10;99.90;;;;;;5074419;28;20024;-53
2022/09/17 08:13:52;;;;;;;4.90;2.80;;;10.10;99.90;;;;;;5074265;28;20093;-53
2022/09/17 08:16:18;;;;;;;6.20;2.75;;;10.10;99.90;;;;;;5074395;28;20024;-52
2022/09/17 08:18:45;;;;;;;4.68;2.97;;;10.30;99.90;;;;;;5074230;28;20025;-52
2022/09/17 08:21:13;;;;;;;8.30;2.90;;;10.40;99.90;;;;;;5074372;28;20024;-52
2022/09/17 08:23:40;;;;;;;6.93;2.80;;;10.60;99.90;;;;;;5073960;28;20024;-51
2022/09/17 08:26:07;;;;;;;8.45;2.25;;;10.40;99.90;;;;;;5074231;28;20055;-52
2022/09/17 08:28:34;;;;;;;6.47;3.05;;;10.50;99.90;;;;;;5073979;28;20373;-52
2022/09/17 08:31:02;;;;;;;8.00;2.67;;;10.60;99.90;;;;;;5079424;28;20726;-52
2022/09/17 08:33:33;;;;;;;4.47;2.65;;;10.60;99.90;;;;;;5086498;28;20029;-54
2022/09/17 08:35:59;;;;;;;4.85;2.28;;;10.70;99.90;;;;;;5079697;28;20043;-51
2022/09/17 08:38:29;;;;;;;6.63;2.40;;;10.80;99.90;;;;;;5074081;28;20031;-51
2022/09/17 08:41:13;;;;;;;11.00;3.13;;;10.70;99.90;;;;;;5083140;28;20069;-52
2022/09/17 08:43:58;;;;;;;12.25;2.80;;;10.90;99.90;;;;;;5093901;28;20488;-54
2022/09/17 08:46:25;;;;;;;3.88;2.58;;;11.10;99.90;;;;;;5091244;28;20036;-52
2022/09/17 08:49:22;;;;;;;7.28;3.00;;;10.90;99.90;;;;;;5073472;28;20028;-51
2022/09/17 08:52:06;;;;;;;7.00;2.50;;;11.40;99.90;;;;;;5078429;28;20039;-54
2022/09/17 08:54:31;;;;;;;;;;;11.80;99.90;;;;;;5063521;28;20390;-52
2022/09/17 08:57:17;;;;;;;8.45;2.35;;;11.70;99.90;;;;;;5073565;28;19954;-55
2022/09/17 09:00:16;;;;;;;10.70;3.78;;;11.70;99.90;;;;;;5073575;28;20025;-55
2022/09/17 09:02:55;;;;;;;9.15;3.25;;;11.70;99.90;;;;;;5085300;28;20043;-51
2022/09/17 09:05:43;;;;;;;7.20;2.42;;;11.60;99.90;;;;;;5077035;28;20024;-52
2022/09/17 09:08:32;;;;;;;16.10;2.70;;;11.70;99.90;;;;;;5072630;28;20072;-51
2022/09/17 09:11:01;;;;;;;6.57;2.17;;;11.70;99.90;;;;;;5073803;28;20021;-54
2022/09/17 09:13:49;;;;;;;5.55;3.30;;;11.90;99.90;;;;;;5072595;28;20388;-52
2022/09/17 09:16:18;;;;;;;10.25;2.75;;;11.70;99.90;;;;;;5072912;28;20025;-72
2022/09/17 09:18:46;;;;;;;5.35;2.40;;;11.50;99.90;;;;;;5072906;28;20020;-52
2022/09/17 09:22:11;;;;;;;12.40;2.67;;;11.70;99.90;;;;;;5073273;28;20020;-51
2022/09/17 09:24:47;;;;;;;4.75;2.13;;;11.80;99.90;;;;;;5028528;28;20030;-52
2022/09/17 09:27:20;;;;;;;5.90;2.00;;;11.60;99.90;;;;;;5068332;28;20035;-51
2022/09/17 09:30:00;;;;;;;9.50;2.50;;;11.50;99.90;;;;;;5072325;28;20021;-51
2022/09/17 09:32:29;;;;;;;5.05;2.03;;;11.30;99.90;;;;;;5072322;28;20337;-55
2022/09/17 09:34:56;;;;;;;9.27;2.50;;;11.30;99.90;;;;;;5100305;28;20568;-55
2022/09/17 09:37:30;;;;;;;5.55;2.67;;;11.40;99.90;;;;;;5072253;28;20021;-52
2022/09/17 09:40:03;;;;;;;6.60;1.95;;;11.50;99.90;;;;;;5072196;28;20119;-52
2022/09/17 09:42:36;;;;;;;10.73;2.22;;;11.80;99.90;;;;;;5072121;28;20099;-54
2022/09/17 09:45:12;;;;;;;9.32;1.88;;;12.10;99.90;;;;;;5072041;28;20039;-53
2022/09/17 09:47:49;;;;;;;7.93;2.03;;;12.20;99.90;;;;;;5071778;28;20067;-54
2022/09/17 09:50:47;;;;;;;10.77;2.40;;;12.40;99.90;;;;;;5071981;28;20478;-55
2022/09/17 09:53:21;;;;;;;11.90;2.50;;;12.40;99.90;;;;;;5072073;28;20040;-52
2022/09/17 09:56:02;;;;;;;3.65;1.67;;;12.70;99.90;;;;;;5072173;28;20048;-51
2022/09/17 09:58:34;;;;;;;11.73;2.85;;;12.70;99.90;;;;;;5072391;28;20028;-52
2022/09/17 10:00:59;;;;;;;19.55;2.63;;;12.70;99.90;;;;;;5081832;28;20099;-51
2022/09/17 10:03:31;;;;;;;14.07;3.40;;;12.30;99.90;;;;;;5085055;28;20110;-53
2022/09/17 10:06:00;;;;;;;6.78;2.17;;;12.50;99.90;;;;;;5092319;28;20028;-54
2022/09/17 10:08:28;;;;;;;4.07;2.17;;;12.60;99.90;;;;;;5092252;28;20048;-53
2022/09/17 10:11:22;;;;;;;11.10;2.17;;;12.40;99.90;;;;;;5092089;28;20024;-55
2022/09/17 10:13:48;;;;;;;10.93;2.50;;;12.80;99.90;;;;;;5070443;28;20044;-52
2022/09/17 10:16:23;;;;;;;7.15;1.80;;;12.60;99.90;;;;;;5071693;28;20051;-52
2022/09/17 10:19:09;;;;;;;6.40;1.90;;;12.40;99.90;;;;;;5071880;28;20383;-58
2022/09/17 10:21:36;;;;;;;3.78;1.65;;;12.80;99.90;;;;;;5071788;28;20039;-54
2022/09/17 10:24:04;;;;;;;5.07;1.88;;;12.90;99.90;;;;;;5073975;28;20410;-53
2022/09/17 10:26:35;;;;;;;12.73;1.77;;;12.50;99.90;;;;;;5066038;28;20016;-56
2022/09/17 10:29:10;;;;;;;8.15;2.17;;;12.40;99.90;;;;;;5103244;28;20069;-55
2022/09/17 10:31:53;;;;;;;6.22;2.17;;;12.50;99.90;;;;;;5072409;28;20056;-56
2022/09/17 10:34:29;;;;;;;14.00;2.00;;;12.50;99.90;;;;;;5071241;28;20051;-52
2022/09/17 10:36:56;;;;;;;6.18;1.90;;;12.40;99.90;;;;;;5070989;28;20120;-54
2022/09/17 10:39:45;;;;;;;11.63;2.13;;;12.60;99.90;;;;;;5070878;28;20021;-54
2022/09/17 10:42:11;;;;;;;7.97;1.95;;;12.20;99.90;;;;;;5071083;28;20716;-52
2022/09/17 10:44:37;;;;;;;4.38;1.98;;;11.90;99.90;;;;;;5070957;28;20060;-56
2022/09/17 10:47:24;;;;;;;9.23;1.77;;;11.70;99.90;;;;;;5071058;28;20109;-53
2022/09/17 10:49:59;;;;;;;12.13;2.45;;;11.70;99.90;;;;;;5070397;28;20186;-53
2022/09/17 10:52:45;;;;;;;5.38;2.10;;;11.60;99.90;;;;;;5068055;28;20508;-51
2022/09/17 10:55:23;;;;;;;11.27;2.70;;;11.40;99.90;;;;;;5070864;28;20024;-53
2022/09/17 10:58:07;;;;;;;4.78;1.88;;;11.50;99.90;;;;;;5070240;28;20032;-52
2022/09/17 11:00:51;;;;;;;;;;;11.40;99.90;;;;;;5071031;28;20025;-54
2022/09/17 11:03:37;;;;;;;7.10;2.10;;;11.70;99.90;;;;;;5073253;28;19908;-52
2022/09/17 11:06:24;;;;;;;6.55;2.45;;;11.80;99.90;;;;;;5041583;28;20040;-55
2022/09/17 11:08:50;;;;;;;3.45;1.92;;;12.10;99.90;;;;;;5067036;28;20056;-55
2022/09/17 11:11:34;;;;;;;4.28;2.35;;;11.90;99.90;;;;;;5074995;28;20032;-52
2022/09/17 11:14:20;;;;;;;8.32;1.98;;;11.90;99.90;;;;;;5066498;28;20079;-53
2022/09/17 11:17:16;;;;;;;7.43;2.13;;;11.80;99.90;;;;;;5073670;28;20021;-55
2022/09/17 11:20:09;;;;;;;7.25;2.10;;;11.60;99.90;;;;;;5071767;28;20032;-51
2022/09/17 11:22:53;;;;;;;5.78;2.22;;;11.60;99.90;;;;;;5070878;28;20051;-53
2022/09/17 11:25:26;;;;;;;3.30;2.30;;;11.60;99.90;;;;;;5063375;28;20023;-54
2022/09/17 11:28:03;;;;;;;18.30;5.03;;;11.60;99.90;;;;;;5071311;28;20062;-55
2022/09/17 11:30:48;;;;;;;5.85;2.78;;;11.30;99.90;;;;;;5071114;28;20255;-54
2022/09/17 11:33:38;;;;;;;3.83;1.40;;;10.90;99.90;;;;;;5071336;28;20194;-53
2022/09/17 11:36:21;;;;;;;3.40;1.70;;;11.00;99.90;;;;;;5069874;28;20017;-53
2022/09/17 11:38:52;;;;;;;2.97;1.83;;;10.60;99.90;;;;;;5070801;28;20533;-55
2022/09/17 11:41:36;;;;;;;5.15;1.83;;;10.40;99.90;;;;;;5072648;28;20267;-55
2022/09/17 11:44:20;;;;;;;1.15;1.15;;;10.50;99.90;;;;;;5079908;28;20056;-52
2022/09/17 11:46:51;;;;;;;;;;;10.50;99.90;;;;;;5072626;28;20036;-52
2022/09/17 11:49:40;;;;;;;3.20;1.45;;;10.60;99.90;;;;;;5091662;28;19904;-53
2022/09/17 11:52:26;;;;;;;3.35;1.65;;;10.50;99.90;;;;;;5091584;28;20032;-52
2022/09/17 11:54:56;;;;;;;1.40;1.30;;;10.60;99.90;;;;;;5091345;28;20111;-52
2022/09/17 11:57:26;;;;;;;1.38;1.30;;;10.40;99.90;;;;;;5090003;28;20021;-54
2022/09/17 12:00:13;;;;;;;2.63;1.30;;;10.00;99.90;;;;;;5089446;28;20129;-53
2022/09/17 12:02:59;;;;;;;3.42;1.98;;;9.90;99.90;;;;;;5090946;28;20492;-52
2022/09/17 12:05:30;;;;;;;1.77;1.60;;;9.60;99.90;;;;;;5089693;28;20028;-52
2022/09/17 12:08:21;;;;;;;12.80;6.60;;;9.60;99.90;;;;;;5085407;28;20374;-52
2022/09/17 12:10:47;;;;;;;3.25;1.83;;;9.50;99.90;;;;;;5079771;28;20027;-55
2022/09/17 12:13:21;;;;;;;1.40;1.30;;;9.70;99.90;;;;;;5087827;28;20082;-55
2022/09/17 12:15:51;;;;;;;2.17;1.98;;;9.80;99.90;;;;;;5070317;28;20376;-52
2022/09/17 12:18:27;;;;;;;1.55;1.30;;;10.10;99.90;;;;;;5070572;28;20505;-51
2022/09/17 12:20:56;;;;;;;6.30;3.17;;;10.70;99.90;;;;;;5070870;28;20017;-52
2022/09/17 12:23:34;;;;;;;17.10;15.20;;;10.80;99.90;;;;;;5070791;28;20028;-52
2022/09/17 12:26:15;;;;;;;4.05;2.25;;;10.90;99.90;;;;;;5078629;28;20111;-56
2022/09/17 12:29:28;;;;;;;1.52;1.42;;;10.80;99.90;;;;;;5090791;28;20028;-55
2022/09/17 12:32:13;;;;;;;1.60;1.50;;;10.70;99.90;;;;;;5028010;28;20037;-51
2022/09/17 12:35:16;;;;;;;1.20;1.10;;;10.40;99.90;;;;;;5090632;28;20356;-52
2022/09/17 12:37:48;;;;;;;6.20;3.70;;;10.40;99.90;;;;;;5090577;28;20028;-53
2022/09/17 12:40:39;;;;;;;1.30;1.20;;;10.40;99.90;;;;;;5090540;28;20379;-55
2022/09/17 12:43:19;;;;;;;2.55;2.20;;;10.20;99.90;;;;;;5091009;28;20085;-55
2022/09/17 12:46:30;;;;;;;1.50;1.40;;;9.90;99.90;;;;;;5089255;28;20054;-52
2022/09/17 12:49:07;;;;;;;4.00;1.38;;;9.80;99.90;;;;;;5090563;28;20028;-52
2022/09/17 12:51:54;;;;;;;1.40;1.30;;;9.80;99.90;;;;;;5090432;28;20154;-52
2022/09/17 12:54:20;;;;;;;11.43;2.15;;;9.80;99.90;;;;;;5090684;28;20030;-56
2022/09/17 12:56:45;;;;;;;6.28;1.40;;;9.80;99.90;;;;;;5090067;28;20472;-52
2022/09/17 12:59:17;;;;;;;1.80;1.33;;;9.60;99.90;;;;;;5090528;28;20016;-54
2022/09/17 13:02:21;;;;;;;3.88;1.77;;;9.60;99.90;;;;;;5090342;28;20378;-53
2022/09/17 13:05:05;;;;;;;2.03;1.88;;;9.90;99.90;;;;;;5058479;28;20415;-52
2022/09/17 13:07:57;;;;;;;2.60;1.80;;;9.80;99.90;;;;;;5090174;28;20130;-54
2022/09/17 13:10:44;;;;;;;2.03;1.70;;;9.70;99.90;;;;;;5090157;28;20387;-55
2022/09/17 13:13:31;;;;;;;1.50;1.40;;;9.90;99.90;;;;;;5081308;28;20017;-54
2022/09/17 13:16:07;;;;;;;2.22;1.55;;;10.20;99.90;;;;;;5072404;28;20025;-55
2022/09/17 13:18:46;;;;;;;1.40;1.30;;;10.30;99.90;;;;;;5090107;28;20055;-58